Time;durP1;ratioP1;P1;durP2;ratioP2;P2;SDS_P1;SDS_P2;PMS_P1;PMS_P2;Temp;Humidity;BMP_temperature;BMP_pressure;BME280_temperature;BME280_humidity;BME280_pressure;Samples;Min_cycle;Max_cycle;Signal;HPM_P1;HPM_P2
2022/11/03 00:01:43;;;;;;;14.55;3.50;;;10.20;99.90;;;;;;5038406;28;20532;-76
2022/11/03 00:04:11;;;;;;;16.48;3.90;;;10.20;99.90;;;;;;5050216;28;20092;-75
2022/11/03 00:06:39;;;;;;;15.02;3.55;;;10.20;99.90;;;;;;5048963;28;20045;-76
2022/11/03 00:09:06;;;;;;;13.25;3.88;;;10.30;99.90;;;;;;5035985;28;20053;-73
2022/11/03 00:11:35;;;;;;;17.42;3.92;;;10.30;99.90;;;;;;5056033;28;20045;-73
2022/11/03 00:14:02;;;;;;;22.65;4.28;;;10.30;99.90;;;;;;5038903;28;20044;-73
2022/11/03 00:16:28;;;;;;;12.07;3.67;;;10.40;99.90;;;;;;5056017;28;20476;-73
2022/11/03 00:18:53;;;;;;;19.67;4.20;;;10.40;99.90;;;;;;5052596;28;20037;-77
2022/11/03 00:21:20;;;;;;;17.63;4.50;;;10.40;99.90;;;;;;5055747;28;20041;-76
2022/11/03 00:23:46;;;;;;;17.73;3.95;;;10.40;99.90;;;;;;5052087;28;20099;-76
2022/11/03 00:26:16;;;;;;;16.73;3.75;;;10.40;99.90;;;;;;5037822;28;20040;-76
2022/11/03 00:28:44;;;;;;;18.38;4.43;;;10.40;99.90;;;;;;5035197;28;20064;-77
2022/11/03 00:31:18;;;;;;;14.07;3.55;;;10.40;99.90;;;;;;5038290;28;20461;-76
2022/11/03 00:33:44;;;;;;;14.80;3.47;;;10.30;99.90;;;;;;5054097;28;20154;-76
2022/11/03 00:36:12;;;;;;;13.52;3.85;;;10.40;99.90;;;;;;5038288;28;20063;-78
2022/11/03 00:38:38;;;;;;;14.80;3.50;;;10.30;99.90;;;;;;5034616;28;20049;-75
2022/11/03 00:41:05;;;;;;;20.60;4.50;;;10.50;99.90;;;;;;5031439;28;20037;-75
2022/11/03 00:43:33;;;;;;;21.60;4.20;;;10.50;99.90;;;;;;5031633;28;20442;-75
2022/11/03 00:45:59;;;;;;;14.35;3.25;;;10.40;99.90;;;;;;5037910;28;20082;-76
2022/11/03 00:48:34;;;;;;;11.35;3.30;;;10.30;99.90;;;;;;5038558;28;20100;-75
2022/11/03 00:51:15;;;;;;;12.45;3.40;;;10.70;99.90;;;;;;5053971;28;20124;-75
2022/11/03 00:53:46;;;;;;;14.32;3.85;;;10.30;99.90;;;;;;5038390;28;20049;-75
2022/11/03 00:56:17;;;;;;;13.25;3.28;;;10.30;99.90;;;;;;5050326;28;20107;-76
2022/11/03 00:58:43;;;;;;;16.98;3.88;;;10.30;99.90;;;;;;5046689;28;20049;-75
2022/11/03 01:01:11;;;;;;;17.10;4.03;;;10.20;99.90;;;;;;5055541;28;20040;-75
2022/11/03 01:03:40;;;;;;;18.40;3.47;;;10.30;99.90;;;;;;5055417;28;20055;-76
2022/11/03 01:08:52;;;;;;;14.85;3.80;;;10.10;99.90;;;;;;5051867;28;20049;-76
2022/11/03 01:14:06;;;;;;;16.17;3.30;;;10.10;99.90;;;;;;5055267;28;20453;-76
2022/11/03 01:16:32;;;;;;;15.68;3.60;;;10.00;99.90;;;;;;5055424;28;20106;-77
2022/11/03 01:18:58;;;;;;;14.45;3.20;;;10.00;99.90;;;;;;5048966;28;20438;-75
2022/11/03 01:21:23;;;;;;;17.05;3.90;;;10.00;99.90;;;;;;5053062;28;20067;-74
2022/11/03 01:23:49;;;;;;;12.82;3.42;;;10.00;99.90;;;;;;5053714;28;20091;-75
2022/11/03 01:26:15;;;;;;;18.52;3.53;;;10.00;99.90;;;;;;5055213;28;20099;-75
2022/11/03 01:28:43;;;;;;;17.88;3.88;;;10.00;99.90;;;;;;5054734;28;20045;-75
2022/11/03 01:31:12;;;;;;;17.45;3.60;;;10.00;99.90;;;;;;5037755;28;20041;-76
2022/11/03 01:33:38;;;;;;;14.13;3.70;;;10.00;99.90;;;;;;5051198;28;20105;-76
2022/11/03 01:36:04;;;;;;;16.50;3.97;;;9.90;99.90;;;;;;5054704;28;20099;-77
2022/11/03 01:38:37;;;;;;;14.13;3.42;;;9.90;99.90;;;;;;5054682;28;20041;-76
2022/11/03 01:41:05;;;;;;;15.73;3.72;;;9.80;99.90;;;;;;5054967;28;20056;-75
2022/11/03 01:43:31;;;;;;;14.18;3.95;;;9.80;99.90;;;;;;5051252;28;20060;-75
2022/11/03 01:46:08;;;;;;;14.82;3.88;;;9.80;99.90;;;;;;5055012;28;20463;-75
2022/11/03 01:48:35;;;;;;;13.02;4.07;;;9.90;99.90;;;;;;5037115;28;20036;-73
2022/11/03 01:51:03;;;;;;;16.15;4.15;;;9.80;99.90;;;;;;5047099;28;20037;-76
2022/11/03 01:53:29;;;;;;;18.55;3.97;;;9.80;99.90;;;;;;5054447;28;20081;-75
2022/11/03 01:55:56;;;;;;;18.30;3.63;;;9.80;99.90;;;;;;5054716;28;20040;-75
2022/11/03 01:58:29;;;;;;;13.63;3.58;;;10.10;99.90;;;;;;5054586;28;20041;-75
2022/11/03 02:00:58;;;;;;;12.70;3.65;;;10.10;99.90;;;;;;5052430;28;20053;-74
2022/11/03 02:03:25;;;;;;;18.52;4.07;;;9.90;99.90;;;;;;5036888;28;20377;-78
2022/11/03 02:05:52;;;;;;;13.30;3.55;;;9.80;99.90;;;;;;5049233;28;20049;-75
2022/11/03 02:08:20;;;;;;;20.23;4.15;;;9.70;99.90;;;;;;5052052;28;20033;-75
2022/11/03 02:10:47;;;;;;;16.65;4.00;;;9.70;99.90;;;;;;5018821;28;20051;-77
2022/11/03 02:13:24;;;;;;;14.95;3.83;;;9.70;99.90;;;;;;5053230;28;20041;-76
2022/11/03 02:15:54;;;;;;;17.17;4.05;;;9.70;99.90;;;;;;5037236;28;20123;-78
2022/11/03 02:18:23;;;;;;;14.25;4.40;;;9.70;99.90;;;;;;5054430;28;20060;-76
2022/11/03 02:21:07;;;;;;;19.52;4.50;;;9.70;99.90;;;;;;5048109;28;20075;-75
2022/11/03 02:23:45;;;;;;;14.20;3.85;;;9.80;99.90;;;;;;5054561;28;20056;-76
2022/11/03 02:26:14;;;;;;;16.92;4.07;;;9.70;99.90;;;;;;5032836;28;20477;-75
2022/11/03 02:28:40;;;;;;;19.92;4.50;;;9.70;99.90;;;;;;5048028;28;20045;-74
2022/11/03 02:31:14;;;;;;;15.43;3.50;;;9.60;99.90;;;;;;5051355;28;20134;-76
2022/11/03 02:34:11;;;;;;;15.98;4.55;;;9.60;99.90;;;;;;5053096;28;20335;-77
2022/11/03 02:36:58;;;;;;;16.85;3.85;;;9.60;99.90;;;;;;5032988;28;20045;-74
2022/11/03 02:39:37;;;;;;;21.05;4.22;;;9.60;99.90;;;;;;5051292;28;20138;-75
2022/11/03 02:42:04;;;;;;;13.95;4.00;;;9.60;99.90;;;;;;5041451;28;20460;-75
2022/11/03 02:44:32;;;;;;;17.70;3.63;;;9.50;99.90;;;;;;5050068;28;20346;-76
2022/11/03 02:47:02;;;;;;;14.48;4.25;;;9.60;99.90;;;;;;5053862;28;20380;-75
2022/11/03 02:49:27;;;;;;;17.85;4.25;;;9.60;99.90;;;;;;5051521;28;20083;-76
2022/11/03 02:52:04;;;;;;;16.15;4.20;;;9.70;99.90;;;;;;5058086;28;20146;-75
2022/11/03 02:54:42;;;;;;;20.05;4.18;;;9.70;99.90;;;;;;5056440;28;20056;-76
2022/11/03 02:57:22;;;;;;;14.85;3.42;;;9.80;99.90;;;;;;5014877;28;20128;-75
2022/11/03 03:00:06;;;;;;;15.32;3.97;;;10.70;99.90;;;;;;5042503;28;20103;-76
2022/11/03 03:02:57;;;;;;;17.25;3.75;;;10.00;99.90;;;;;;5039771;28;20492;-75
2022/11/03 03:05:26;;;;;;;16.58;3.67;;;10.00;99.90;;;;;;5057575;28;20091;-75
2022/11/03 03:07:57;;;;;;;16.00;4.00;;;9.90;99.90;;;;;;5039499;28;20049;-74
2022/11/03 03:10:28;;;;;;;20.98;3.88;;;9.90;99.90;;;;;;5056289;28;20123;-75
2022/11/03 03:12:57;;;;;;;18.35;3.85;;;10.00;99.90;;;;;;5040544;28;20049;-74
2022/11/03 03:15:49;;;;;;;16.08;3.75;;;9.90;99.90;;;;;;5039296;28;20061;-75
2022/11/03 03:18:38;;;;;;;17.05;3.47;;;9.90;99.90;;;;;;5039771;28;20067;-76
2022/11/03 03:21:08;;;;;;;16.95;4.05;;;9.80;99.90;;;;;;5055797;28;20076;-76
2022/11/03 03:23:40;;;;;;;14.88;3.60;;;10.20;99.90;;;;;;5036843;28;20052;-76
2022/11/03 03:26:15;;;;;;;13.93;4.35;;;9.90;99.90;;;;;;5035605;28;20055;-74
2022/11/03 03:28:48;;;;;;;20.02;3.80;;;9.90;99.90;;;;;;5048742;28;20087;-75
2022/11/03 03:31:18;;;;;;;16.75;3.97;;;9.90;99.90;;;;;;5040267;28;20052;-77
2022/11/03 03:33:45;;;;;;;17.20;3.85;;;9.90;99.90;;;;;;5056824;28;20064;-77
2022/11/03 03:36:15;;;;;;;15.23;3.85;;;10.00;99.90;;;;;;5039601;28;20040;-76
2022/11/03 03:38:46;;;;;;;17.58;3.58;;;10.20;99.90;;;;;;5056626;28;20052;-75
2022/11/03 03:41:20;;;;;;;13.32;3.55;;;9.90;99.90;;;;;;5051539;28;20159;-76
2022/11/03 03:43:51;;;;;;;16.48;4.43;;;10.00;99.90;;;;;;5057095;28;20075;-77
2022/11/03 03:46:18;;;;;;;18.13;3.78;;;10.00;99.90;;;;;;5056514;28;20048;-76
2022/11/03 03:48:44;;;;;;;12.65;3.50;;;10.10;99.90;;;;;;5036297;28;20374;-75
2022/11/03 03:51:11;;;;;;;23.70;4.13;;;10.00;99.90;;;;;;5053562;28;20037;-76
2022/11/03 03:53:37;;;;;;;20.08;3.90;;;10.00;99.90;;;;;;5056763;28;20045;-74
2022/11/03 03:56:04;;;;;;;14.63;3.55;;;10.50;99.90;;;;;;5056653;28;20364;-76
2022/11/03 03:58:30;;;;;;;18.83;3.90;;;9.90;99.90;;;;;;5056634;28;20392;-75
2022/11/03 04:00:55;;;;;;;16.08;3.70;;;9.90;99.90;;;;;;5054522;28;20056;-75
2022/11/03 04:03:23;;;;;;;14.23;4.00;;;9.90;99.90;;;;;;5056527;28;20110;-75
2022/11/03 04:05:49;;;;;;;14.63;4.00;;;9.90;99.90;;;;;;5052082;28;20041;-74
2022/11/03 04:08:16;;;;;;;20.42;3.63;;;9.90;99.90;;;;;;5036399;28;20453;-74
2022/11/03 04:22:15;;;;;;;17.88;3.95;;;9.80;99.90;;;;;;5056686;28;20049;-75
2022/11/03 04:24:29;;;;;;;16.45;3.70;;;10.20;99.90;;;;;;5056327;28;20052;-75
2022/11/03 04:27:00;;;;;;;16.23;4.10;;;9.90;99.90;;;;;;5056617;28;20033;-76
2022/11/03 04:29:26;;;;;;;17.90;4.13;;;9.90;99.90;;;;;;5048165;28;20053;-76
2022/11/03 04:31:51;;;;;;;17.77;3.90;;;10.20;99.90;;;;;;5053576;28;20056;-76
2022/11/03 04:34:17;;;;;;;13.25;3.50;;;9.90;99.90;;;;;;5053006;28;20446;-75
2022/11/03 04:36:42;;;;;;;20.33;3.75;;;10.00;99.90;;;;;;5038667;28;20098;-76
2022/11/03 04:39:19;;;;;;;15.93;3.63;;;10.40;99.90;;;;;;5056003;28;20048;-77
2022/11/03 04:41:45;;;;;;;15.73;3.78;;;9.80;99.90;;;;;;5033012;28;20052;-75
2022/11/03 04:44:14;;;;;;;14.65;4.25;;;9.80;99.90;;;;;;5055981;28;20045;-76
2022/11/03 04:46:40;;;;;;;15.88;3.85;;;9.80;99.90;;;;;;5053616;28;20048;-74
2022/11/03 04:49:20;;;;;;;13.80;3.70;;;9.80;99.90;;;;;;5035872;28;20374;-75
2022/11/03 04:51:47;;;;;;;19.48;4.00;;;9.80;99.90;;;;;;5056177;28;20049;-77
2022/11/03 04:54:20;;;;;;;17.73;4.10;;;9.90;99.90;;;;;;5055460;28;20110;-77
2022/11/03 04:56:45;;;;;;;19.55;3.92;;;9.90;99.90;;;;;;5056185;28;20044;-77
2022/11/03 04:59:13;;;;;;;14.30;3.90;;;10.30;99.90;;;;;;5038759;28;20057;-76
2022/11/03 05:01:39;;;;;;;19.98;4.95;;;10.20;99.90;;;;;;5055467;28;20174;-72
2022/11/03 05:04:14;;;;;;;18.33;3.63;;;10.00;99.90;;;;;;5055952;28;20087;-75
2022/11/03 05:06:42;;;;;;;16.05;4.55;;;10.00;99.90;;;;;;5051670;28;20095;-75
2022/11/03 05:09:15;;;;;;;13.35;4.18;;;10.20;99.90;;;;;;5037671;28;20075;-76
2022/11/03 05:11:44;;;;;;;13.48;3.65;;;10.10;99.90;;;;;;5053812;28;20492;-75
2022/11/03 05:14:12;;;;;;;12.82;3.95;;;10.10;99.90;;;;;;5052887;28;20049;-75
2022/11/03 05:16:38;;;;;;;17.13;3.90;;;10.00;99.90;;;;;;5055840;28;20045;-75
2022/11/03 05:19:13;;;;;;;17.15;3.53;;;10.00;99.90;;;;;;5055403;28;20052;-75
2022/11/03 05:21:39;;;;;;;15.63;3.75;;;10.00;99.90;;;;;;5055510;28;20044;-75
2022/11/03 05:24:11;;;;;;;16.42;3.75;;;10.00;99.90;;;;;;5055367;28;20437;-75
2022/11/03 05:26:37;;;;;;;13.93;3.90;;;10.00;99.90;;;;;;5055723;28;20049;-74
2022/11/03 05:29:25;;;;;;;13.43;3.58;;;10.00;99.90;;;;;;5055629;28;20064;-75
2022/11/03 05:31:53;;;;;;;14.52;3.95;;;10.00;99.90;;;;;;5055232;28;20045;-74
2022/11/03 05:34:57;;;;;;;14.82;4.00;;;10.00;99.90;;;;;;5055618;28;20045;-76
2022/11/03 05:37:29;;;;;;;14.88;3.70;;;9.90;99.90;;;;;;4993509;28;20065;-75
2022/11/03 05:39:59;;;;;;;20.50;4.83;;;9.90;99.90;;;;;;5033934;28;20080;-75
2022/11/03 05:42:33;;;;;;;16.63;3.58;;;9.90;99.90;;;;;;5035206;28;20100;-75
2022/11/03 05:45:11;;;;;;;12.30;3.67;;;10.00;99.90;;;;;;5035373;28;20115;-77
2022/11/03 05:47:38;;;;;;;18.48;4.10;;;9.90;99.90;;;;;;5035340;28;20123;-75
2022/11/03 05:50:23;;;;;;;13.30;3.67;;;9.90;99.90;;;;;;5035580;28;20092;-75
2022/11/03 05:52:53;;;;;;;12.30;4.07;;;9.90;99.90;;;;;;5035735;28;20417;-77
2022/11/03 05:55:26;;;;;;;15.13;4.30;;;10.00;99.90;;;;;;5017864;28;20108;-75
2022/11/03 05:57:57;;;;;;;19.75;4.40;;;10.00;99.90;;;;;;5051325;28;20052;-72
2022/11/03 06:00:39;;;;;;;18.60;4.53;;;10.00;99.90;;;;;;5055126;28;20056;-73
2022/11/03 06:03:05;;;;;;;16.05;4.35;;;10.10;99.90;;;;;;5054682;28;20420;-75
2022/11/03 06:05:33;;;;;;;16.50;4.50;;;10.10;99.90;;;;;;5054966;28;20037;-74
2022/11/03 06:08:01;;;;;;;14.52;3.53;;;10.10;99.90;;;;;;5055453;28;20048;-75
2022/11/03 06:10:34;;;;;;;17.25;4.03;;;10.10;99.90;;;;;;5037797;28;20067;-74
2022/11/03 06:13:25;;;;;;;12.43;3.78;;;10.00;99.90;;;;;;5037455;28;20040;-74
2022/11/03 06:16:17;;;;;;;23.30;4.28;;;10.00;99.90;;;;;;5041151;28;20061;-76
2022/11/03 06:18:43;;;;;;;15.18;3.65;;;10.00;99.90;;;;;;5041134;28;20075;-78
2022/11/03 06:21:15;;;;;;;17.80;4.38;;;10.10;99.90;;;;;;5054736;28;20041;-76
2022/11/03 06:23:41;;;;;;;15.85;4.05;;;10.00;99.90;;;;;;5055553;28;20087;-76
2022/11/03 06:26:33;;;;;;;17.38;4.43;;;10.00;99.90;;;;;;5058829;28;20053;-75
2022/11/03 06:29:00;;;;;;;12.65;3.63;;;10.00;99.90;;;;;;5054237;28;20521;-77
2022/11/03 06:31:29;;;;;;;26.33;4.93;;;9.90;99.90;;;;;;5058781;28;20064;-75
2022/11/03 06:33:56;;;;;;;19.02;5.35;;;9.90;99.90;;;;;;5058277;28;20056;-75
2022/11/03 06:36:26;;;;;;;10.70;3.55;;;10.00;99.90;;;;;;5040795;28;20049;-76
2022/11/03 06:39:00;;;;;;;15.27;4.63;;;10.00;99.90;;;;;;5058717;28;20088;-75
2022/11/03 06:41:28;;;;;;;16.10;4.38;;;10.00;99.90;;;;;;5040717;28;20048;-76
2022/11/03 06:43:54;;;;;;;16.90;4.43;;;10.00;99.90;;;;;;5059203;28;20127;-76
2022/11/03 06:46:25;;;;;;;15.38;4.53;;;10.20;99.90;;;;;;5058501;28;20133;-76
2022/11/03 06:48:59;;;;;;;14.25;4.18;;;10.00;99.90;;;;;;5058104;28;20055;-75
2022/11/03 06:51:29;;;;;;;20.60;4.95;;;10.00;99.90;;;;;;5040871;28;20049;-75
2022/11/03 06:53:59;;;;;;;18.05;4.68;;;10.00;99.90;;;;;;5041156;28;20045;-74
2022/11/03 06:56:29;;;;;;;17.85;4.65;;;10.20;99.90;;;;;;5058332;28;20477;-77
2022/11/03 06:58:55;;;;;;;17.88;4.13;;;10.00;99.90;;;;;;5058275;28;20051;-75
2022/11/03 07:01:29;;;;;;;18.92;4.35;;;10.00;99.90;;;;;;5039899;28;20064;-75
2022/11/03 07:04:19;;;;;;;18.63;5.05;;;10.00;99.90;;;;;;5040474;28;20055;-77
2022/11/03 07:06:46;;;;;;;12.00;3.92;;;10.10;99.90;;;;;;5040512;28;20041;-76
2022/11/03 07:09:18;;;;;;;13.05;3.88;;;10.10;99.90;;;;;;5058100;28;20053;-76
2022/11/03 07:11:52;;;;;;;16.55;4.00;;;9.90;99.90;;;;;;5057898;28;20327;-76
2022/11/03 07:14:21;;;;;;;15.55;4.53;;;10.10;99.90;;;;;;5058290;28;20048;-75
2022/11/03 07:16:54;;;;;;;18.83;4.97;;;10.20;99.90;;;;;;5057458;28;20094;-76
2022/11/03 07:19:44;;;;;;;17.92;4.65;;;10.30;99.90;;;;;;5023896;28;20072;-77
2022/11/03 07:22:19;;;;;;;13.07;4.25;;;10.30;99.90;;;;;;5039892;28;20085;-75
2022/11/03 07:24:47;;;;;;;17.15;4.45;;;10.40;99.90;;;;;;5040632;28;20049;-74
2022/11/03 07:27:28;;;;;;;18.10;5.65;;;10.50;99.90;;;;;;5040764;28;20353;-75
2022/11/03 07:29:59;;;;;;;13.63;3.65;;;10.50;99.90;;;;;;5057814;28;20047;-75
2022/11/03 07:32:31;;;;;;;14.65;4.10;;;10.50;99.90;;;;;;5057475;28;20048;-76
2022/11/03 07:35:22;;;;;;;14.38;4.57;;;10.60;99.90;;;;;;5057132;28;20090;-76
2022/11/03 07:37:50;;;;;;;18.48;4.63;;;10.60;99.90;;;;;;5057649;28;20106;-75
2022/11/03 07:40:22;;;;;;;22.20;4.35;;;10.70;99.90;;;;;;5040524;28;20048;-76
2022/11/03 07:42:51;;;;;;;15.65;4.15;;;10.80;99.90;;;;;;5040161;28;20060;-74
2022/11/03 07:45:37;;;;;;;14.52;4.18;;;10.90;99.90;;;;;;5057704;28;20139;-76
2022/11/03 07:48:16;;;;;;;15.15;4.78;;;11.00;99.90;;;;;;5038830;28;20052;-74
2022/11/03 07:50:42;;;;;;;17.60;4.80;;;11.00;99.90;;;;;;5040024;28;20115;-74
2022/11/03 07:53:31;;;;;;;12.10;4.22;;;11.00;99.90;;;;;;5023379;28;20048;-76
2022/11/03 07:55:57;;;;;;;17.05;3.97;;;11.10;99.90;;;;;;5039104;28;20116;-75
2022/11/03 07:58:32;;;;;;;16.45;4.20;;;11.30;99.90;;;;;;5057143;28;20044;-75
2022/11/03 08:01:00;;;;;;;14.98;4.75;;;11.20;99.90;;;;;;5057086;28;20060;-76
2022/11/03 08:03:48;;;;;;;16.52;4.25;;;11.20;99.90;;;;;;5056804;28;20110;-76
2022/11/03 08:06:14;;;;;;;14.18;4.25;;;11.30;99.90;;;;;;5036005;28;20454;-76
2022/11/03 08:08:39;;;;;;;13.63;3.92;;;11.40;99.90;;;;;;5019845;28;20049;-76
2022/11/03 08:11:05;;;;;;;14.52;4.25;;;11.40;99.90;;;;;;5019773;28;20356;-75
2022/11/03 08:13:31;;;;;;;12.77;4.30;;;11.50;99.90;;;;;;5019561;28;20049;-75
2022/11/03 08:15:57;;;;;;;14.32;4.30;;;11.60;99.90;;;;;;5019386;28;20064;-76
2022/11/03 08:18:23;;;;;;;17.50;4.38;;;11.60;99.90;;;;;;5035722;28;20049;-76
2022/11/03 08:20:48;;;;;;;12.57;4.03;;;11.70;99.90;;;;;;5056928;28;20354;-77
2022/11/03 08:23:15;;;;;;;12.05;4.18;;;11.90;99.90;;;;;;5056608;28;20060;-76
2022/11/03 08:25:41;;;;;;;14.43;4.20;;;11.90;99.90;;;;;;5056599;28;20405;-76
2022/11/03 08:28:07;;;;;;;14.00;4.07;;;12.00;99.90;;;;;;5056545;28;20095;-75
2022/11/03 08:30:33;;;;;;;18.10;4.38;;;12.00;99.90;;;;;;5056812;28;20056;-75
2022/11/03 08:32:59;;;;;;;14.73;4.70;;;12.10;99.90;;;;;;5057199;28;20083;-74
2022/11/03 08:35:25;;;;;;;14.88;3.95;;;12.10;99.90;;;;;;5055916;28;20049;-74
2022/11/03 08:37:50;;;;;;;13.98;4.22;;;12.20;99.90;;;;;;5056062;28;20045;-74
2022/11/03 08:40:16;;;;;;;15.38;4.40;;;12.30;99.90;;;;;;5056164;28;20044;-75
2022/11/03 08:42:41;;;;;;;15.05;4.45;;;12.30;99.90;;;;;;5038298;28;20117;-78
2022/11/03 08:45:07;;;;;;;15.43;4.25;;;12.30;99.90;;;;;;5022187;28;20450;-75
2022/11/03 08:47:33;;;;;;;14.57;4.55;;;12.30;99.90;;;;;;5056201;28;20083;-75
2022/11/03 08:49:59;;;;;;;16.20;4.22;;;12.40;99.90;;;;;;5038915;28;20075;-75
2022/11/03 08:52:25;;;;;;;17.02;4.20;;;12.40;99.90;;;;;;5056347;28;20422;-75
2022/11/03 08:54:51;;;;;;;17.58;4.93;;;12.40;99.90;;;;;;5056099;28;20077;-75
2022/11/03 08:57:16;;;;;;;13.27;4.00;;;12.40;99.90;;;;;;5037915;28;20071;-75
2022/11/03 08:59:42;;;;;;;17.60;4.82;;;12.60;99.90;;;;;;5053172;28;20069;-75
2022/11/03 09:02:07;;;;;;;15.82;4.40;;;12.40;99.90;;;;;;5035071;28;20049;-78
2022/11/03 09:04:33;;;;;;;16.77;4.22;;;12.40;99.90;;;;;;5055611;28;20107;-75
2022/11/03 09:06:59;;;;;;;11.55;4.10;;;12.40;99.90;;;;;;5055958;28;20037;-75
2022/11/03 09:09:24;;;;;;;19.05;4.35;;;12.50;99.90;;;;;;5055952;28;20442;-77
2022/11/03 09:11:50;;;;;;;15.13;3.88;;;12.60;99.90;;;;;;5055420;28;20473;-77
2022/11/03 09:14:16;;;;;;;15.98;4.30;;;12.60;99.90;;;;;;5055643;28;20049;-76
2022/11/03 09:16:41;;;;;;;16.90;4.03;;;12.70;99.90;;;;;;5055845;28;20052;-76
2022/11/03 09:19:07;;;;;;;17.50;4.40;;;12.70;99.90;;;;;;5037871;28;20049;-75
2022/11/03 09:21:32;;;;;;;16.50;4.07;;;12.80;99.90;;;;;;5022506;28;20051;-74
2022/11/03 09:23:59;;;;;;;13.82;4.43;;;12.80;99.90;;;;;;5056042;28;20362;-76
2022/11/03 09:26:25;;;;;;;14.70;3.88;;;12.90;99.90;;;;;;5021344;28;20049;-77
2022/11/03 09:28:51;;;;;;;16.63;4.13;;;13.00;99.90;;;;;;5055417;28;20102;-76
2022/11/03 09:31:17;;;;;;;14.68;4.10;;;13.00;99.90;;;;;;5055691;28;20052;-74
2022/11/03 09:33:43;;;;;;;16.23;4.10;;;13.10;99.90;;;;;;5038071;28;20061;-78
2022/11/03 09:36:09;;;;;;;18.30;4.97;;;13.10;99.90;;;;;;5037702;28;20044;-77
2022/11/03 09:38:34;;;;;;;13.15;3.63;;;13.20;99.90;;;;;;5038512;28;20080;-75
2022/11/03 09:41:01;;;;;;;14.85;3.75;;;13.30;99.90;;;;;;5055479;28;20516;-76
2022/11/03 09:43:27;;;;;;;13.25;4.20;;;13.30;99.90;;;;;;5055533;28;20040;-74
2022/11/03 09:45:53;;;;;;;14.45;4.20;;;13.40;99.90;;;;;;5055361;28;20114;-75
2022/11/03 09:48:18;;;;;;;15.70;4.03;;;13.50;99.90;;;;;;5054621;28;20036;-77
2022/11/03 09:50:49;;;;;;;15.75;4.13;;;13.50;99.90;;;;;;5055565;28;20144;-75
2022/11/03 09:53:14;;;;;;;21.40;4.20;;;13.50;99.90;;;;;;5055214;28;20076;-75
2022/11/03 09:55:40;;;;;;;13.45;4.25;;;13.70;99.90;;;;;;5055005;28;20041;-75
2022/11/03 09:58:16;;;;;;;18.50;4.65;;;13.90;99.90;;;;;;5054450;28;20079;-76
2022/11/03 10:00:43;;;;;;;14.18;3.78;;;13.90;99.90;;;;;;5037070;28;20053;-75
2022/11/03 10:03:15;;;;;;;14.98;5.05;;;14.00;99.90;;;;;;5054499;28;20049;-78
2022/11/03 10:05:43;;;;;;;17.73;4.32;;;14.10;99.90;;;;;;5054809;28;20056;-78
2022/11/03 10:08:24;;;;;;;13.82;3.42;;;14.20;99.90;;;;;;5054800;28;20124;-75
2022/11/03 10:10:51;;;;;;;15.27;4.50;;;14.30;99.90;;;;;;5037062;28;20045;-74
2022/11/03 10:13:35;;;;;;;13.10;4.45;;;14.40;99.90;;;;;;5037504;28;20366;-75
2022/11/03 10:16:04;;;;;;;14.48;3.65;;;14.50;99.90;;;;;;5054771;28;20049;-75
2022/11/03 10:18:31;;;;;;;14.55;4.07;;;14.60;99.90;;;;;;5018036;28;20422;-75
2022/11/03 10:21:03;;;;;;;12.98;3.75;;;14.60;99.90;;;;;;5017756;28;20462;-75
2022/11/03 10:23:29;;;;;;;13.02;4.63;;;14.60;99.90;;;;;;5034994;28;20038;-75
2022/11/03 10:26:15;;;;;;;11.98;3.70;;;14.60;99.90;;;;;;5017475;28;20453;-75
2022/11/03 10:29:12;;;;;;;12.77;3.85;;;14.60;99.90;;;;;;5035219;28;20362;-76
2022/11/03 10:31:39;;;;;;;15.40;4.10;;;14.50;99.90;;;;;;5041708;28;20041;-77
2022/11/03 10:34:22;;;;;;;12.63;3.85;;;14.50;99.90;;;;;;5054837;28;20045;-76
2022/11/03 10:36:48;;;;;;;12.95;3.45;;;14.80;99.90;;;;;;5054476;28;20056;-77
2022/11/03 10:39:29;;;;;;;11.05;3.83;;;14.60;99.90;;;;;;5054975;28;20118;-75
2022/11/03 10:41:58;;;;;;;16.00;3.78;;;14.80;99.90;;;;;;5054859;28;20045;-75
2022/11/03 10:44:28;;;;;;;10.07;3.28;;;14.90;99.90;;;;;;5037561;28;20185;-74
2022/11/03 10:47:02;;;;;;;15.85;4.97;;;15.00;99.90;;;;;;5054176;28;20446;-75
2022/11/03 10:49:30;;;;;;;14.40;3.58;;;15.20;99.90;;;;;;5055070;28;20139;-76
2022/11/03 10:52:19;;;;;;;11.30;3.60;;;15.30;99.90;;;;;;5037516;28;20131;-75
2022/11/03 10:54:46;;;;;;;14.38;3.72;;;15.40;99.90;;;;;;5054509;28;20128;-76
2022/11/03 10:57:13;;;;;;;13.35;4.05;;;15.50;99.90;;;;;;5054799;28;20132;-76
2022/11/03 10:59:39;;;;;;;12.45;3.92;;;15.60;99.90;;;;;;5054345;28;20052;-74
2022/11/03 11:02:20;;;;;;;14.18;3.67;;;15.50;99.90;;;;;;5054141;28;20045;-76
2022/11/03 11:04:47;;;;;;;9.95;2.97;;;15.50;99.90;;;;;;5054492;28;20037;-79
2022/11/03 11:07:19;;;;;;;16.27;3.88;;;15.50;99.90;;;;;;5055123;28;20049;-74
2022/11/03 11:09:45;;;;;;;11.60;3.42;;;15.50;99.90;;;;;;5037492;28;20484;-75
2022/11/03 11:12:21;;;;;;;12.77;2.65;;;15.60;99.90;;;;;;5057836;28;20041;-76
2022/11/03 11:14:56;;;;;;;15.95;3.17;;;15.60;99.90;;;;;;5058510;28;20369;-75
2022/11/03 11:17:41;;;;;;;10.98;3.42;;;15.70;99.90;;;;;;5039976;28;20057;-76
2022/11/03 11:20:21;;;;;;;15.27;3.70;;;15.70;99.90;;;;;;5058698;28;20052;-76
2022/11/03 11:22:48;;;;;;;10.68;2.60;;;15.70;99.90;;;;;;5057631;28;20079;-76
2022/11/03 11:25:14;;;;;;;14.27;3.47;;;15.80;99.90;;;;;;5057717;28;20049;-76
2022/11/03 11:27:39;;;;;;;12.00;3.45;;;16.00;99.90;;;;;;5040693;28;20059;-75
2022/11/03 11:30:29;;;;;;;14.18;3.30;;;16.00;99.90;;;;;;5057536;28;20045;-76
2022/11/03 11:32:59;;;;;;;11.93;3.17;;;16.00;99.90;;;;;;5003304;28;20053;-75
2022/11/03 11:35:25;;;;;;;11.10;2.70;;;15.90;99.90;;;;;;5039799;28;20106;-75
2022/11/03 11:37:51;;;;;;;11.20;3.38;;;15.90;99.90;;;;;;5040405;28;20049;-72
2022/11/03 11:40:23;;;;;;;14.18;3.63;;;15.90;99.90;;;;;;5057471;28;20045;-76
2022/11/03 11:43:12;;;;;;;7.35;2.38;;;15.90;99.90;;;;;;5058151;28;20045;-76
2022/11/03 11:46:15;;;;;;;10.60;2.80;;;16.00;99.90;;;;;;5044291;28;20423;-74
2022/11/03 11:48:41;;;;;;;13.35;3.47;;;15.80;99.90;;;;;;5057300;28;20049;-75
2022/11/03 11:51:10;;;;;;;9.95;3.08;;;15.80;99.90;;;;;;5040122;28;20343;-75
2022/11/03 11:53:43;;;;;;;11.85;2.83;;;15.90;99.90;;;;;;5057141;28;20369;-76
2022/11/03 11:56:11;;;;;;;;;;;15.80;99.90;;;;;;5040310;28;20060;-76
2022/11/03 11:58:52;;;;;;;8.38;3.08;;;15.90;99.90;;;;;;5039629;28;20349;-75
2022/11/03 12:01:34;;;;;;;9.80;2.75;;;15.80;99.90;;;;;;5039172;28;20083;-75
2022/11/03 12:04:04;;;;;;;12.18;3.00;;;15.80;99.90;;;;;;5039734;28;20114;-75
2022/11/03 12:06:40;;;;;;;10.95;3.00;;;15.90;99.90;;;;;;5039443;28;20045;-77
2022/11/03 12:09:17;;;;;;;9.15;2.72;;;15.90;99.90;;;;;;5057000;28;20102;-76
2022/11/03 12:11:47;;;;;;;13.23;2.67;;;15.90;99.90;;;;;;5056504;28;20063;-75
2022/11/03 12:14:34;;;;;;;10.40;3.05;;;15.80;99.90;;;;;;5056538;28;20041;-76
2022/11/03 12:17:18;;;;;;;9.30;2.90;;;15.80;99.90;;;;;;5039684;28;20416;-75
2022/11/03 12:19:45;;;;;;;;;;;15.70;99.90;;;;;;5040395;28;20059;-75
2022/11/03 12:22:22;;;;;;;10.38;3.00;;;15.70;99.90;;;;;;5071429;28;19928;-75
2022/11/03 12:24:55;;;;;;;11.82;2.65;;;15.70;99.90;;;;;;5039392;28;20173;-76
2022/11/03 12:27:24;;;;;;;12.27;3.10;;;15.70;99.90;;;;;;5057036;28;20033;-75
2022/11/03 12:29:54;;;;;;;12.40;2.75;;;15.70;99.90;;;;;;5056204;28;20068;-75
2022/11/03 12:32:20;;;;;;;21.17;4.43;;;15.70;99.90;;;;;;5056724;28;20038;-75
2022/11/03 12:34:46;;;;;;;8.57;2.58;;;15.80;99.90;;;;;;5056693;28;20045;-75
2022/11/03 12:37:11;;;;;;;15.73;3.25;;;15.60;99.90;;;;;;5057098;28;20106;-77
2022/11/03 12:39:37;;;;;;;8.10;2.72;;;15.60;99.90;;;;;;5056197;28;20434;-78
2022/11/03 12:42:04;;;;;;;9.88;2.75;;;15.60;99.90;;;;;;5039510;28;20052;-75
2022/11/03 12:44:30;;;;;;;9.77;2.50;;;15.60;99.90;;;;;;5038187;28;20044;-76
2022/11/03 12:46:55;;;;;;;11.90;3.30;;;15.70;99.90;;;;;;5056466;28;20037;-75
2022/11/03 12:49:21;;;;;;;10.18;3.10;;;15.60;99.90;;;;;;5056642;28;20131;-77
2022/11/03 12:51:46;;;;;;;9.57;3.00;;;15.50;99.90;;;;;;5038795;28;20068;-74
2022/11/03 12:54:12;;;;;;;10.50;2.72;;;15.60;99.90;;;;;;5056000;28;20037;-76
2022/11/03 12:56:37;;;;;;;7.75;2.72;;;15.40;99.90;;;;;;5038538;28;20060;-75
2022/11/03 12:59:03;;;;;;;9.18;2.92;;;15.50;99.90;;;;;;5055936;28;20425;-75
2022/11/03 13:01:29;;;;;;;11.82;2.88;;;15.40;99.90;;;;;;5056582;28;20049;-75
2022/11/03 13:03:54;;;;;;;7.53;2.72;;;15.40;99.90;;;;;;5056183;28;20056;-75
2022/11/03 13:06:20;;;;;;;7.72;2.75;;;15.50;99.90;;;;;;5056109;28;20052;-76
2022/11/03 13:08:46;;;;;;;10.65;3.00;;;15.70;99.90;;;;;;5056253;28;20437;-76
2022/11/03 13:13:56;;;;;;;9.48;2.70;;;15.70;99.90;;;;;;5055274;28;20044;-77
2022/11/03 13:16:22;;;;;;;13.70;3.38;;;15.80;99.90;;;;;;5055010;28;20063;-75
2022/11/03 13:18:48;;;;;;;8.23;3.35;;;15.80;99.90;;;;;;5054304;28;20041;-76